sensor_id;sensor_type;location;lat;lon;timestamp;pressure;altitude;pressure_sealevel;temperature
67822;BMP180;54434;50.096;20.082;2024-01-30T00:02:03;100662.60;;;-2.90
67822;BMP180;54434;50.096;20.082;2024-01-30T00:04:58;100657.60;;;-2.90
67822;BMP180;54434;50.096;20.082;2024-01-30T00:07:53;100661.00;;;-2.98
67822;BMP180;54434;50.096;20.082;2024-01-30T00:10:48;100658.60;;;-3.00
67822;BMP180;54434;50.096;20.082;2024-01-30T00:13:42;100653.80;;;-3.00
67822;BMP180;54434;50.096;20.082;2024-01-30T00:16:37;100650.80;;;-3.00
67822;BMP180;54434;50.096;20.082;2024-01-30T00:19:31;100650.60;;;-2.90
67822;BMP180;54434;50.096;20.082;2024-01-30T00:22:25;100650.60;;;-2.90
67822;BMP180;54434;50.096;20.082;2024-01-30T00:25:20;100650.00;;;-2.90
67822;BMP180;54434;50.096;20.082;2024-01-30T00:28:14;100652.60;;;-2.90
67822;BMP180;54434;50.096;20.082;2024-01-30T00:31:09;100654.80;;;-2.94
67822;BMP180;54434;50.096;20.082;2024-01-30T00:34:05;100651.40;;;-3.00
67822;BMP180;54434;50.096;20.082;2024-01-30T00:37:00;100653.40;;;-3.00
67822;BMP180;54434;50.096;20.082;2024-01-30T00:39:54;100653.20;;;-3.00
67822;BMP180;54434;50.096;20.082;2024-01-30T00:42:48;100649.40;;;-3.00
67822;BMP180;54434;50.096;20.082;2024-01-30T00:45:44;100652.60;;;-3.06
67822;BMP180;54434;50.096;20.082;2024-01-30T00:48:39;100645.80;;;-3.08
67822;BMP180;54434;50.096;20.082;2024-01-30T00:51:33;100640.00;;;-3.08
67822;BMP180;54434;50.096;20.082;2024-01-30T00:54:27;100640.00;;;-3.10
67822;BMP180;54434;50.096;20.082;2024-01-30T00:57:22;100635.40;;;-3.10
67822;BMP180;54434;50.096;20.082;2024-01-30T01:00:18;100643.40;;;-3.10
67822;BMP180;54434;50.096;20.082;2024-01-30T01:03:14;100637.20;;;-3.10
67822;BMP180;54434;50.096;20.082;2024-01-30T01:06:09;100634.20;;;-3.10
67822;BMP180;54434;50.096;20.082;2024-01-30T01:09:03;100629.80;;;-3.10
67822;BMP180;54434;50.096;20.082;2024-01-30T01:11:58;100630.80;;;-3.10
67822;BMP180;54434;50.096;20.082;2024-01-30T01:14:53;100628.20;;;-3.20
67822;BMP180;54434;50.096;20.082;2024-01-30T01:17:47;100628.40;;;-3.20
67822;BMP180;54434;50.096;20.082;2024-01-30T01:20:42;100631.80;;;-3.20
67822;BMP180;54434;50.096;20.082;2024-01-30T01:23:36;100626.60;;;-3.20
67822;BMP180;54434;50.096;20.082;2024-01-30T01:26:30;100630.80;;;-3.20
67822;BMP180;54434;50.096;20.082;2024-01-30T01:29:24;100626.00;;;-3.20
67822;BMP180;54434;50.096;20.082;2024-01-30T01:32:21;100622.80;;;-3.26
67822;BMP180;54434;50.096;20.082;2024-01-30T01:35:16;100624.00;;;-3.30
67822;BMP180;54434;50.096;20.082;2024-01-30T01:38:10;100621.80;;;-3.30
67822;BMP180;54434;50.096;20.082;2024-01-30T01:41:05;100627.80;;;-3.30
67822;BMP180;54434;50.096;20.082;2024-01-30T01:44:00;100619.80;;;-3.30
67822;BMP180;54434;50.096;20.082;2024-01-30T01:46:55;100617.60;;;-3.30
67822;BMP180;54434;50.096;20.082;2024-01-30T01:49:51;100613.40;;;-3.30
67822;BMP180;54434;50.096;20.082;2024-01-30T01:52:46;100613.40;;;-3.30
67822;BMP180;54434;50.096;20.082;2024-01-30T01:55:42;100615.40;;;-3.34
67822;BMP180;54434;50.096;20.082;2024-01-30T01:58:37;100617.20;;;-3.40
67822;BMP180;54434;50.096;20.082;2024-01-30T02:01:32;100622.80;;;-3.40
67822;BMP180;54434;50.096;20.082;2024-01-30T02:04:27;100616.80;;;-3.40
67822;BMP180;54434;50.096;20.082;2024-01-30T02:07:23;100610.80;;;-3.50
67822;BMP180;54434;50.096;20.082;2024-01-30T02:10:18;100612.60;;;-3.50
67822;BMP180;54434;50.096;20.082;2024-01-30T02:13:13;100612.00;;;-3.50
67822;BMP180;54434;50.096;20.082;2024-01-30T02:16:09;100611.40;;;-3.50
67822;BMP180;54434;50.096;20.082;2024-01-30T02:19:03;100607.40;;;-3.50
67822;BMP180;54434;50.096;20.082;2024-01-30T02:21:58;100603.80;;;-3.56
67822;BMP180;54434;50.096;20.082;2024-01-30T02:24:52;100602.20;;;-3.60
67822;BMP180;54434;50.096;20.082;2024-01-30T02:27:46;100600.00;;;-3.60
67822;BMP180;54434;50.096;20.082;2024-01-30T02:30:42;100598.20;;;-3.50
67822;BMP180;54434;50.096;20.082;2024-01-30T02:33:36;100603.60;;;-3.52
67822;BMP180;54434;50.096;20.082;2024-01-30T02:36:31;100600.60;;;-3.60
67822;BMP180;54434;50.096;20.082;2024-01-30T02:39:26;100595.20;;;-3.60
67822;BMP180;54434;50.096;20.082;2024-01-30T02:42:20;100585.20;;;-3.60
67822;BMP180;54434;50.096;20.082;2024-01-30T02:45:17;100582.40;;;-3.68
67822;BMP180;54434;50.096;20.082;2024-01-30T02:48:11;100582.60;;;-3.70
67822;BMP180;54434;50.096;20.082;2024-01-30T02:51:05;100582.00;;;-3.70
67822;BMP180;54434;50.096;20.082;2024-01-30T02:54:00;100581.00;;;-3.70
67822;BMP180;54434;50.096;20.082;2024-01-30T02:56:55;100577.40;;;-3.70
67822;BMP180;54434;50.096;20.082;2024-01-30T02:59:49;100578.40;;;-3.78
67822;BMP180;54434;50.096;20.082;2024-01-30T03:02:44;100573.40;;;-3.80
67822;BMP180;54434;50.096;20.082;2024-01-30T03:05:38;100573.00;;;-3.80
67822;BMP180;54434;50.096;20.082;2024-01-30T03:08:33;100572.20;;;-3.80
67822;BMP180;54434;50.096;20.082;2024-01-30T03:11:28;100561.60;;;-3.86
67822;BMP180;54434;50.096;20.082;2024-01-30T03:14:22;100560.60;;;-3.90
67822;BMP180;54434;50.096;20.082;2024-01-30T03:17:17;100568.60;;;-3.90
67822;BMP180;54434;50.096;20.082;2024-01-30T03:20:13;100572.00;;;-3.90
67822;BMP180;54434;50.096;20.082;2024-01-30T03:23:07;100572.20;;;-3.90
67822;BMP180;54434;50.096;20.082;2024-01-30T03:26:03;100579.00;;;-3.92
67822;BMP180;54434;50.096;20.082;2024-01-30T03:28:59;100579.80;;;-4.00
67822;BMP180;54434;50.096;20.082;2024-01-30T03:31:54;100578.20;;;-4.00
67822;BMP180;54434;50.096;20.082;2024-01-30T03:34:49;100579.60;;;-4.00
67822;BMP180;54434;50.096;20.082;2024-01-30T03:37:44;100581.40;;;-4.00
67822;BMP180;54434;50.096;20.082;2024-01-30T03:40:38;100585.20;;;-4.02
67822;BMP180;54434;50.096;20.082;2024-01-30T03:43:32;100590.00;;;-4.10
67822;BMP180;54434;50.096;20.082;2024-01-30T03:46:27;100581.20;;;-4.10
67822;BMP180;54434;50.096;20.082;2024-01-30T03:49:23;100580.40;;;-4.10
67822;BMP180;54434;50.096;20.082;2024-01-30T03:52:18;100571.60;;;-4.10
67822;BMP180;54434;50.096;20.082;2024-01-30T03:55:13;100574.80;;;-4.10
67822;BMP180;54434;50.096;20.082;2024-01-30T03:58:09;100575.00;;;-4.10
67822;BMP180;54434;50.096;20.082;2024-01-30T04:01:03;100576.40;;;-4.10
67822;BMP180;54434;50.096;20.082;2024-01-30T04:03:58;100567.00;;;-4.16
67822;BMP180;54434;50.096;20.082;2024-01-30T04:06:52;100555.60;;;-4.18
67822;BMP180;54434;50.096;20.082;2024-01-30T04:09:47;100557.00;;;-4.20
67822;BMP180;54434;50.096;20.082;2024-01-30T04:12:41;100551.40;;;-4.20
67822;BMP180;54434;50.096;20.082;2024-01-30T04:15:36;100554.80;;;-4.16
67822;BMP180;54434;50.096;20.082;2024-01-30T04:18:31;100556.00;;;-4.20
67822;BMP180;54434;50.096;20.082;2024-01-30T04:21:27;100563.40;;;-4.16
67822;BMP180;54434;50.096;20.082;2024-01-30T04:24:21;100561.80;;;-4.20
67822;BMP180;54434;50.096;20.082;2024-01-30T04:27:16;100559.20;;;-4.20
67822;BMP180;54434;50.096;20.082;2024-01-30T04:30:12;100564.20;;;-4.20
67822;BMP180;54434;50.096;20.082;2024-01-30T04:33:07;100561.60;;;-4.20
67822;BMP180;54434;50.096;20.082;2024-01-30T04:36:01;100566.00;;;-4.20
67822;BMP180;54434;50.096;20.082;2024-01-30T04:38:56;100566.60;;;-4.20
67822;BMP180;54434;50.096;20.082;2024-01-30T04:41:50;100567.40;;;-4.20
67822;BMP180;54434;50.096;20.082;2024-01-30T04:44:45;100577.40;;;-4.20
67822;BMP180;54434;50.096;20.082;2024-01-30T04:47:39;100580.00;;;-4.28
67822;BMP180;54434;50.096;20.082;2024-01-30T04:50:33;100579.00;;;-4.30
67822;BMP180;54434;50.096;20.082;2024-01-30T04:53:28;100577.00;;;-4.28
67822;BMP180;54434;50.096;20.082;2024-01-30T04:56:22;100578.20;;;-4.30
67822;BMP180;54434;50.096;20.082;2024-01-30T04:59:19;100573.00;;;-4.30
67822;BMP180;54434;50.096;20.082;2024-01-30T05:02:14;100574.00;;;-4.30
67822;BMP180;54434;50.096;20.082;2024-01-30T05:05:10;100578.20;;;-4.30
67822;BMP180;54434;50.096;20.082;2024-01-30T05:08:05;100578.60;;;-4.30
67822;BMP180;54434;50.096;20.082;2024-01-30T05:11:03;100580.80;;;-4.30
67822;BMP180;54434;50.096;20.082;2024-01-30T05:13:57;100584.40;;;-4.30
67822;BMP180;54434;50.096;20.082;2024-01-30T05:16:52;100586.20;;;-4.30
67822;BMP180;54434;50.096;20.082;2024-01-30T05:19:47;100590.20;;;-4.30
67822;BMP180;54434;50.096;20.082;2024-01-30T05:22:41;100583.20;;;-4.34
67822;BMP180;54434;50.096;20.082;2024-01-30T05:25:38;100583.60;;;-4.40
67822;BMP180;54434;50.096;20.082;2024-01-30T05:28:33;100579.00;;;-4.40
67822;BMP180;54434;50.096;20.082;2024-01-30T05:31:27;100580.60;;;-4.40
67822;BMP180;54434;50.096;20.082;2024-01-30T05:34:22;100582.00;;;-4.40
67822;BMP180;54434;50.096;20.082;2024-01-30T05:37:16;100579.00;;;-4.40
67822;BMP180;54434;50.096;20.082;2024-01-30T05:40:13;100586.20;;;-4.40
67822;BMP180;54434;50.096;20.082;2024-01-30T05:43:07;100576.60;;;-4.40
67822;BMP180;54434;50.096;20.082;2024-01-30T05:46:02;100579.40;;;-4.40
67822;BMP180;54434;50.096;20.082;2024-01-30T05:48:57;100578.80;;;-4.40
67822;BMP180;54434;50.096;20.082;2024-01-30T05:51:51;100580.00;;;-4.50
67822;BMP180;54434;50.096;20.082;2024-01-30T05:54:47;100588.60;;;-4.50
67822;BMP180;54434;50.096;20.082;2024-01-30T05:57:41;100587.80;;;-4.56
67822;BMP180;54434;50.096;20.082;2024-01-30T06:00:36;100582.80;;;-4.60
67822;BMP180;54434;50.096;20.082;2024-01-30T06:03:30;100586.80;;;-4.60
67822;BMP180;54434;50.096;20.082;2024-01-30T06:06:24;100586.60;;;-4.60
67822;BMP180;54434;50.096;20.082;2024-01-30T06:09:19;100583.80;;;-4.60
67822;BMP180;54434;50.096;20.082;2024-01-30T06:12:13;100584.80;;;-4.60
67822;BMP180;54434;50.096;20.082;2024-01-30T06:15:09;100591.00;;;-4.60
67822;BMP180;54434;50.096;20.082;2024-01-30T06:18:06;100596.80;;;-4.60
67822;BMP180;54434;50.096;20.082;2024-01-30T06:21:01;100593.00;;;-4.60
67822;BMP180;54434;50.096;20.082;2024-01-30T06:23:55;100586.40;;;-4.60
67822;BMP180;54434;50.096;20.082;2024-01-30T06:26:50;100585.40;;;-4.60
67822;BMP180;54434;50.096;20.082;2024-01-30T06:29:45;100592.80;;;-4.60
67822;BMP180;54434;50.096;20.082;2024-01-30T06:32:40;100589.40;;;-4.58
67822;BMP180;54434;50.096;20.082;2024-01-30T06:35:35;100587.20;;;-4.54
67822;BMP180;54434;50.096;20.082;2024-01-30T06:38:36;100591.20;;;-4.54
67822;BMP180;54434;50.096;20.082;2024-01-30T06:41:31;100594.20;;;-4.50
67822;BMP180;54434;50.096;20.082;2024-01-30T06:44:25;100589.60;;;-4.50
67822;BMP180;54434;50.096;20.082;2024-01-30T06:47:24;100583.00;;;-4.50
67822;BMP180;54434;50.096;20.082;2024-01-30T06:50:18;100583.80;;;-4.40
67822;BMP180;54434;50.096;20.082;2024-01-30T06:53:13;100589.60;;;-4.40
67822;BMP180;54434;50.096;20.082;2024-01-30T06:56:09;100585.00;;;-4.30
67822;BMP180;54434;50.096;20.082;2024-01-30T06:59:03;100582.60;;;-4.30
67822;BMP180;54434;50.096;20.082;2024-01-30T07:01:58;100585.00;;;-4.20
67822;BMP180;54434;50.096;20.082;2024-01-30T07:04:52;100587.80;;;-4.10
67822;BMP180;54434;50.096;20.082;2024-01-30T07:07:47;100588.60;;;-4.10
67822;BMP180;54434;50.096;20.082;2024-01-30T07:10:42;100583.00;;;-4.00
67822;BMP180;54434;50.096;20.082;2024-01-30T07:13:37;100573.80;;;-3.90
67822;BMP180;54434;50.096;20.082;2024-01-30T07:16:32;100582.00;;;-3.80
67822;BMP180;54434;50.096;20.082;2024-01-30T07:19:26;100582.80;;;-3.70
67822;BMP180;54434;50.096;20.082;2024-01-30T07:22:21;100584.60;;;-3.60
67822;BMP180;54434;50.096;20.082;2024-01-30T07:25:16;100578.00;;;-3.50
67822;BMP180;54434;50.096;20.082;2024-01-30T07:28:10;100586.40;;;-3.40
67822;BMP180;54434;50.096;20.082;2024-01-30T07:31:06;100591.80;;;-3.30
67822;BMP180;54434;50.096;20.082;2024-01-30T07:34:00;100589.40;;;-3.20
67822;BMP180;54434;50.096;20.082;2024-01-30T07:36:55;100590.80;;;-3.10
67822;BMP180;54434;50.096;20.082;2024-01-30T07:39:50;100594.40;;;-3.00
67822;BMP180;54434;50.096;20.082;2024-01-30T07:42:47;100594.80;;;-2.80
67822;BMP180;54434;50.096;20.082;2024-01-30T07:45:45;100590.00;;;-2.60
67822;BMP180;54434;50.096;20.082;2024-01-30T07:48:40;100594.40;;;-2.36
67822;BMP180;54434;50.096;20.082;2024-01-30T07:51:34;100589.00;;;-2.06
67822;BMP180;54434;50.096;20.082;2024-01-30T07:54:30;100593.80;;;-1.66
67822;BMP180;54434;50.096;20.082;2024-01-30T07:57:29;100596.40;;;-1.20
67822;BMP180;54434;50.096;20.082;2024-01-30T08:00:24;100599.20;;;-0.76
67822;BMP180;54434;50.096;20.082;2024-01-30T08:03:19;100599.20;;;-0.32
67822;BMP180;54434;50.096;20.082;2024-01-30T08:06:13;100600.20;;;0.16
67822;BMP180;54434;50.096;20.082;2024-01-30T08:09:07;100599.60;;;0.62
67822;BMP180;54434;50.096;20.082;2024-01-30T08:12:02;100603.60;;;1.10
67822;BMP180;54434;50.096;20.082;2024-01-30T08:14:56;100606.60;;;1.54
67822;BMP180;54434;50.096;20.082;2024-01-30T08:17:50;100616.00;;;1.94
67822;BMP180;54434;50.096;20.082;2024-01-30T08:20:48;100616.40;;;2.32
67822;BMP180;54434;50.096;20.082;2024-01-30T08:23:43;100611.20;;;2.60
67822;BMP180;54434;50.096;20.082;2024-01-30T08:26:38;100612.80;;;2.90
67822;BMP180;54434;50.096;20.082;2024-01-30T08:29:32;100617.40;;;3.24
67822;BMP180;54434;50.096;20.082;2024-01-30T08:32:27;100617.00;;;3.50
67822;BMP180;54434;50.096;20.082;2024-01-30T08:35:21;100617.20;;;3.70
67822;BMP180;54434;50.096;20.082;2024-01-30T08:38:16;100621.60;;;3.82
67822;BMP180;54434;50.096;20.082;2024-01-30T08:41:10;100612.20;;;4.00
67822;BMP180;54434;50.096;20.082;2024-01-30T08:44:05;100612.40;;;4.10
67822;BMP180;54434;50.096;20.082;2024-01-30T08:46:59;100616.00;;;4.28
67822;BMP180;54434;50.096;20.082;2024-01-30T08:49:53;100606.60;;;4.40
67822;BMP180;54434;50.096;20.082;2024-01-30T08:52:48;100606.80;;;4.42
67822;BMP180;54434;50.096;20.082;2024-01-30T08:55:42;100610.80;;;4.50
67822;BMP180;54434;50.096;20.082;2024-01-30T08:58:37;100608.40;;;4.60
67822;BMP180;54434;50.096;20.082;2024-01-30T09:01:31;100614.00;;;4.70
67822;BMP180;54434;50.096;20.082;2024-01-30T09:04:26;100611.40;;;4.80
67822;BMP180;54434;50.096;20.082;2024-01-30T09:07:20;100615.00;;;4.90
67822;BMP180;54434;50.096;20.082;2024-01-30T09:10:15;100612.60;;;4.92
67822;BMP180;54434;50.096;20.082;2024-01-30T09:13:13;100619.40;;;5.00
67822;BMP180;54434;50.096;20.082;2024-01-30T09:16:09;100617.40;;;5.00
67822;BMP180;54434;50.096;20.082;2024-01-30T09:19:03;100613.80;;;5.00
67822;BMP180;54434;50.096;20.082;2024-01-30T09:21:58;100612.00;;;5.02
67822;BMP180;54434;50.096;20.082;2024-01-30T09:24:52;100603.00;;;5.04
67822;BMP180;54434;50.096;20.082;2024-01-30T09:27:46;100601.00;;;5.10
67822;BMP180;54434;50.096;20.082;2024-01-30T09:30:40;100603.20;;;5.10
67822;BMP180;54434;50.096;20.082;2024-01-30T09:33:34;100602.80;;;5.10
67822;BMP180;54434;50.096;20.082;2024-01-30T09:36:35;100595.80;;;5.00
67822;BMP180;54434;50.096;20.082;2024-01-30T09:39:31;100595.40;;;5.10
67822;BMP180;54434;50.096;20.082;2024-01-30T09:42:35;100593.00;;;5.10
67822;BMP180;54434;50.096;20.082;2024-01-30T09:45:31;100588.00;;;5.10
67822;BMP180;54434;50.096;20.082;2024-01-30T09:48:27;100590.00;;;5.20
67822;BMP180;54434;50.096;20.082;2024-01-30T09:51:22;100588.80;;;5.16
67822;BMP180;54434;50.096;20.082;2024-01-30T09:54:19;100583.00;;;5.20
67822;BMP180;54434;50.096;20.082;2024-01-30T09:57:14;100587.80;;;5.20
67822;BMP180;54434;50.096;20.082;2024-01-30T10:00:11;100581.20;;;5.20
67822;BMP180;54434;50.096;20.082;2024-01-30T10:03:06;100580.80;;;5.18
67822;BMP180;54434;50.096;20.082;2024-01-30T10:06:02;100573.00;;;5.18
67822;BMP180;54434;50.096;20.082;2024-01-30T10:08:56;100563.80;;;5.10
67822;BMP180;54434;50.096;20.082;2024-01-30T10:11:52;100566.00;;;5.20
67822;BMP180;54434;50.096;20.082;2024-01-30T10:14:47;100562.40;;;5.20
67822;BMP180;54434;50.096;20.082;2024-01-30T10:17:42;100564.40;;;5.20
67822;BMP180;54434;50.096;20.082;2024-01-30T10:20:37;100558.00;;;5.20
67822;BMP180;54434;50.096;20.082;2024-01-30T10:23:32;100558.80;;;5.20
67822;BMP180;54434;50.096;20.082;2024-01-30T10:26:27;100552.60;;;5.28
67822;BMP180;54434;50.096;20.082;2024-01-30T10:29:26;100549.20;;;5.30
67822;BMP180;54434;50.096;20.082;2024-01-30T10:32:21;100549.60;;;5.30
67822;BMP180;54434;50.096;20.082;2024-01-30T10:35:16;100541.80;;;5.30
67822;BMP180;54434;50.096;20.082;2024-01-30T10:38:15;100540.60;;;5.30
67822;BMP180;54434;50.096;20.082;2024-01-30T10:41:12;100537.80;;;5.40
67822;BMP180;54434;50.096;20.082;2024-01-30T10:44:11;100535.40;;;5.40
67822;BMP180;54434;50.096;20.082;2024-01-30T10:47:12;100531.00;;;5.40
67822;BMP180;54434;50.096;20.082;2024-01-30T10:50:12;100528.00;;;5.50
67822;BMP180;54434;50.096;20.082;2024-01-30T10:53:07;100518.60;;;5.50
67822;BMP180;54434;50.096;20.082;2024-01-30T10:56:04;100523.00;;;5.60
67822;BMP180;54434;50.096;20.082;2024-01-30T10:58:59;100514.40;;;5.60
67822;BMP180;54434;50.096;20.082;2024-01-30T11:01:54;100511.00;;;5.60
67822;BMP180;54434;50.096;20.082;2024-01-30T11:04:49;100506.60;;;5.70
67822;BMP180;54434;50.096;20.082;2024-01-30T11:07:43;100506.20;;;5.70
67822;BMP180;54434;50.096;20.082;2024-01-30T11:10:47;100502.60;;;5.70
67822;BMP180;54434;50.096;20.082;2024-01-30T11:13:42;100506.20;;;5.70
67822;BMP180;54434;50.096;20.082;2024-01-30T11:16:41;100503.20;;;5.80
67822;BMP180;54434;50.096;20.082;2024-01-30T11:19:38;100502.40;;;5.84
67822;BMP180;54434;50.096;20.082;2024-01-30T11:22:35;100500.40;;;5.90
67822;BMP180;54434;50.096;20.082;2024-01-30T11:25:29;100498.40;;;5.98
67822;BMP180;54434;50.096;20.082;2024-01-30T11:28:25;100500.40;;;6.00
67822;BMP180;54434;50.096;20.082;2024-01-30T11:31:25;100495.00;;;6.08
67822;BMP180;54434;50.096;20.082;2024-01-30T11:34:20;100496.00;;;6.10
67822;BMP180;54434;50.096;20.082;2024-01-30T11:37:16;100488.80;;;6.10
67822;BMP180;54434;50.096;20.082;2024-01-30T11:40:14;100487.00;;;6.10
67822;BMP180;54434;50.096;20.082;2024-01-30T11:43:09;100487.60;;;6.10
67822;BMP180;54434;50.096;20.082;2024-01-30T11:46:04;100482.60;;;6.10
67822;BMP180;54434;50.096;20.082;2024-01-30T11:48:59;100481.20;;;6.10
67822;BMP180;54434;50.096;20.082;2024-01-30T11:51:54;100482.20;;;6.10
67822;BMP180;54434;50.096;20.082;2024-01-30T11:54:48;100474.60;;;6.14
67822;BMP180;54434;50.096;20.082;2024-01-30T11:57:42;100476.60;;;6.20
67822;BMP180;54434;50.096;20.082;2024-01-30T12:00:39;100475.00;;;6.20
67822;BMP180;54434;50.096;20.082;2024-01-30T12:03:34;100472.80;;;6.20
67822;BMP180;54434;50.096;20.082;2024-01-30T12:06:29;100472.20;;;6.20
67822;BMP180;54434;50.096;20.082;2024-01-30T12:09:23;100471.80;;;6.20
67822;BMP180;54434;50.096;20.082;2024-01-30T12:12:18;100467.80;;;6.18
67822;BMP180;54434;50.096;20.082;2024-01-30T12:15:13;100465.40;;;6.20
67822;BMP180;54434;50.096;20.082;2024-01-30T12:18:11;100463.20;;;6.20
67822;BMP180;54434;50.096;20.082;2024-01-30T12:21:06;100460.80;;;6.20
67822;BMP180;54434;50.096;20.082;2024-01-30T12:24:02;100458.60;;;6.20
67822;BMP180;54434;50.096;20.082;2024-01-30T12:27:00;100453.80;;;6.20
67822;BMP180;54434;50.096;20.082;2024-01-30T12:29:59;100454.20;;;6.20
67822;BMP180;54434;50.096;20.082;2024-01-30T12:32:54;100451.40;;;6.30
67822;BMP180;54434;50.096;20.082;2024-01-30T12:35:50;100461.40;;;6.30
67822;BMP180;54434;50.096;20.082;2024-01-30T12:38:54;100456.00;;;6.30
67822;BMP180;54434;50.096;20.082;2024-01-30T12:41:51;100452.00;;;6.30
67822;BMP180;54434;50.096;20.082;2024-01-30T12:44:46;100451.60;;;6.34
67822;BMP180;54434;50.096;20.082;2024-01-30T12:47:40;100453.20;;;6.36
67822;BMP180;54434;50.096;20.082;2024-01-30T12:50:35;100451.40;;;6.40
67822;BMP180;54434;50.096;20.082;2024-01-30T12:53:30;100452.80;;;6.40
67822;BMP180;54434;50.096;20.082;2024-01-30T12:56:24;100449.80;;;6.40
67822;BMP180;54434;50.096;20.082;2024-01-30T12:59:19;100450.20;;;6.40
67822;BMP180;54434;50.096;20.082;2024-01-30T13:02:13;100444.40;;;6.40
67822;BMP180;54434;50.096;20.082;2024-01-30T13:05:09;100443.40;;;6.40
67822;BMP180;54434;50.096;20.082;2024-01-30T13:08:08;100437.00;;;6.50
67822;BMP180;54434;50.096;20.082;2024-01-30T13:11:02;100436.00;;;6.50
67822;BMP180;54434;50.096;20.082;2024-01-30T13:13:56;100430.60;;;6.50
67822;BMP180;54434;50.096;20.082;2024-01-30T13:16:51;100424.00;;;6.60
67822;BMP180;54434;50.096;20.082;2024-01-30T13:19:45;100421.40;;;6.60
67822;BMP180;54434;50.096;20.082;2024-01-30T13:22:41;100420.20;;;6.62
67822;BMP180;54434;50.096;20.082;2024-01-30T13:25:37;100422.40;;;6.70
67822;BMP180;54434;50.096;20.082;2024-01-30T13:28:31;100420.20;;;6.70
67822;BMP180;54434;50.096;20.082;2024-01-30T13:31:26;100418.40;;;6.70
67822;BMP180;54434;50.096;20.082;2024-01-30T13:34:21;100416.00;;;6.70
67822;BMP180;54434;50.096;20.082;2024-01-30T13:37:15;100416.00;;;6.70
67822;BMP180;54434;50.096;20.082;2024-01-30T13:40:11;100417.20;;;6.70
67822;BMP180;54434;50.096;20.082;2024-01-30T13:43:07;100413.40;;;6.70
67822;BMP180;54434;50.096;20.082;2024-01-30T13:46:02;100412.40;;;6.70
67822;BMP180;54434;50.096;20.082;2024-01-30T13:48:56;100417.00;;;6.70
67822;BMP180;54434;50.096;20.082;2024-01-30T13:51:50;100415.80;;;6.70
67822;BMP180;54434;50.096;20.082;2024-01-30T13:54:47;100416.20;;;6.70
67822;BMP180;54434;50.096;20.082;2024-01-30T13:57:41;100420.00;;;6.70
67822;BMP180;54434;50.096;20.082;2024-01-30T14:00:36;100421.00;;;6.76
67822;BMP180;54434;50.096;20.082;2024-01-30T14:03:30;100419.40;;;6.80
67822;BMP180;54434;50.096;20.082;2024-01-30T14:06:24;100415.00;;;6.80
67822;BMP180;54434;50.096;20.082;2024-01-30T14:09:18;100410.60;;;6.74
67822;BMP180;54434;50.096;20.082;2024-01-30T14:12:14;100409.40;;;6.70
67822;BMP180;54434;50.096;20.082;2024-01-30T14:15:10;100409.40;;;6.70
67822;BMP180;54434;50.096;20.082;2024-01-30T14:18:19;100409.20;;;6.70
67822;BMP180;54434;50.096;20.082;2024-01-30T14:21:13;100405.20;;;6.66
67822;BMP180;54434;50.096;20.082;2024-01-30T14:24:07;100408.60;;;6.60
67822;BMP180;54434;50.096;20.082;2024-01-30T14:27:01;100405.20;;;6.60
67822;BMP180;54434;50.096;20.082;2024-01-30T14:29:57;100400.20;;;6.60
67822;BMP180;54434;50.096;20.082;2024-01-30T14:32:51;100400.40;;;6.60
67822;BMP180;54434;50.096;20.082;2024-01-30T14:35:45;100401.00;;;6.60
67822;BMP180;54434;50.096;20.082;2024-01-30T14:38:39;100401.40;;;6.60
67822;BMP180;54434;50.096;20.082;2024-01-30T14:41:35;100400.80;;;6.60
67822;BMP180;54434;50.096;20.082;2024-01-30T14:44:29;100400.00;;;6.60
67822;BMP180;54434;50.096;20.082;2024-01-30T14:47:23;100396.80;;;6.60
67822;BMP180;54434;50.096;20.082;2024-01-30T14:50:18;100393.40;;;6.60
67822;BMP180;54434;50.096;20.082;2024-01-30T14:53:12;100396.60;;;6.54
67822;BMP180;54434;50.096;20.082;2024-01-30T14:56:08;100393.00;;;6.50
67822;BMP180;54434;50.096;20.082;2024-01-30T14:59:02;100387.60;;;6.40
67822;BMP180;54434;50.096;20.082;2024-01-30T15:01:56;100391.40;;;6.30
67822;BMP180;54434;50.096;20.082;2024-01-30T15:04:51;100385.60;;;6.22
67822;BMP180;54434;50.096;20.082;2024-01-30T15:07:45;100386.60;;;6.10
67822;BMP180;54434;50.096;20.082;2024-01-30T15:10:39;100385.00;;;6.00
67822;BMP180;54434;50.096;20.082;2024-01-30T15:13:35;100383.20;;;5.90
67822;BMP180;54434;50.096;20.082;2024-01-30T15:16:29;100385.80;;;5.72
67822;BMP180;54434;50.096;20.082;2024-01-30T15:19:24;100388.80;;;5.60
67822;BMP180;54434;50.096;20.082;2024-01-30T15:22:18;100383.40;;;5.48
67822;BMP180;54434;50.096;20.082;2024-01-30T15:25:12;100389.40;;;5.30
67822;BMP180;54434;50.096;20.082;2024-01-30T15:28:07;100384.00;;;5.10
67822;BMP180;54434;50.096;20.082;2024-01-30T15:31:06;100385.40;;;5.00
67822;BMP180;54434;50.096;20.082;2024-01-30T15:34:00;100384.40;;;4.80
67822;BMP180;54434;50.096;20.082;2024-01-30T15:36:56;100384.20;;;4.60
67822;BMP180;54434;50.096;20.082;2024-01-30T15:39:50;100378.40;;;4.44
67822;BMP180;54434;50.096;20.082;2024-01-30T15:42:44;100383.00;;;4.30
67822;BMP180;54434;50.096;20.082;2024-01-30T15:45:38;100380.00;;;4.10
67822;BMP180;54434;50.096;20.082;2024-01-30T15:48:31;100377.00;;;3.90
67822;BMP180;54434;50.096;20.082;2024-01-30T15:51:26;100376.00;;;3.72
67822;BMP180;54434;50.096;20.082;2024-01-30T15:54:21;100376.80;;;3.60
67822;BMP180;54434;50.096;20.082;2024-01-30T15:57:15;100376.00;;;3.40
67822;BMP180;54434;50.096;20.082;2024-01-30T16:00:14;100372.00;;;3.30
67822;BMP180;54434;50.096;20.082;2024-01-30T16:03:09;100372.60;;;3.10
67822;BMP180;54434;50.096;20.082;2024-01-30T16:06:04;100372.40;;;2.96
67822;BMP180;54434;50.096;20.082;2024-01-30T16:08:58;100372.20;;;2.80
67822;BMP180;54434;50.096;20.082;2024-01-30T16:11:52;100365.40;;;2.64
67822;BMP180;54434;50.096;20.082;2024-01-30T16:14:46;100358.00;;;2.50
67822;BMP180;54434;50.096;20.082;2024-01-30T16:17:40;100358.60;;;2.40
67822;BMP180;54434;50.096;20.082;2024-01-30T16:20:37;100352.60;;;2.20
67822;BMP180;54434;50.096;20.082;2024-01-30T16:23:34;100354.00;;;2.10
67822;BMP180;54434;50.096;20.082;2024-01-30T16:26:29;100356.00;;;2.00
67822;BMP180;54434;50.096;20.082;2024-01-30T16:29:23;100353.80;;;1.90